Irbit, Russia
Current Conditions -  °F | °C
As of 7:30 PM on Saturday 25 Oct 2014 (Local Time) from USTR Reporting Station
Few Clouds Few Clouds  
Wind Chill: -11°   Ceiling: Unl
Heat Index:   Visibility: 6mi
Dew Point:   Wind: 9mph
Humidity: 85%   Direction: 290°WNW
Pressure: 29.94"   Gusts: NA
Location:  57.67°N, 63.06°E
Report Text: USTR 251430Z 29004MPS 9999 FEW016CB M16/M18 Q1014 TEMPO 2000SHSN BKN007 RMK QFE751/1002 30490255 03////99
Loading
Personal Weather Stations






























Interactive Weather Map
Tropical Storm Tracking
New forecast layout! Learn more

10-Day Weather Forecast

Advertisements
Track Severe Weather on mobile